Time;durP1;ratioP1;P1;durP2;ratioP2;P2;SDS_P1;SDS_P2;PMS_P1;PMS_P2;Temp;Humidity;BMP_temperature;BMP_pressure;BME280_temperature;BME280_humidity;BME280_pressure;Samples;Min_cycle;Max_cycle;Signal;HPM_P1;HPM_P2
2022/10/16 00:00:15;;;;;;;23.83;11.23;;;11.80;99.90;;;;;;4360390;28;659916;-66
2022/10/16 00:03:03;;;;;;;24.37;12.77;;;11.70;99.90;;;;;;4379208;28;661597;-65
2022/10/16 00:05:50;;;;;;;22.30;12.13;;;11.70;99.90;;;;;;4371147;28;659733;-67
2022/10/16 00:08:37;;;;;;;26.73;11.93;;;11.70;99.90;;;;;;4383615;28;660309;-65
2022/10/16 00:11:27;;;;;;;24.17;12.63;;;11.60;99.90;;;;;;4377010;28;659878;-66
2022/10/16 00:14:15;;;;;;;23.90;12.40;;;11.60;99.90;;;;;;4379197;28;659233;-65
2022/10/16 00:17:02;;;;;;;28.27;13.77;;;11.60;99.90;;;;;;4360153;28;661055;-65
2022/10/16 00:19:50;;;;;;;22.57;12.53;;;11.60;99.90;;;;;;4377669;28;660613;-66
2022/10/16 00:22:37;;;;;;;27.23;14.37;;;11.60;99.90;;;;;;4378845;28;660829;-65
2022/10/16 00:25:25;;;;;;;28.63;14.33;;;11.70;99.90;;;;;;4359903;28;659352;-66
2022/10/16 00:28:14;;;;;;;23.90;13.93;;;11.70;99.90;;;;;;4365939;28;660015;-65
2022/10/16 00:31:04;;;;;;;25.00;13.93;;;11.60;99.90;;;;;;4343286;28;660159;-65
2022/10/16 00:33:51;;;;;;;23.70;14.23;;;11.60;99.90;;;;;;4333844;28;659718;-65
2022/10/16 00:36:38;;;;;;;26.07;14.47;;;11.70;99.90;;;;;;4370412;28;660175;-65
2022/10/16 00:39:25;;;;;;;28.07;14.00;;;11.70;99.90;;;;;;4342724;28;660268;-65
2022/10/16 00:42:15;;;;;;;27.03;14.23;;;11.70;99.90;;;;;;4361726;28;661203;-65
2022/10/16 00:45:04;;;;;;;31.13;14.23;;;11.70;99.90;;;;;;4339026;28;660334;-65
2022/10/16 00:47:52;;;;;;;26.10;15.20;;;11.70;99.90;;;;;;4342537;28;661301;-65
2022/10/16 00:50:43;;;;;;;26.67;14.57;;;11.80;99.90;;;;;;4361739;28;659466;-65
2022/10/16 00:53:30;;;;;;;29.83;16.10;;;11.80;99.90;;;;;;4329152;28;659726;-66
2022/10/16 00:56:17;;;;;;;43.50;22.73;;;11.80;99.90;;;;;;4365838;28;660690;-65
2022/10/16 00:59:05;;;;;;;42.83;22.33;;;11.80;99.90;;;;;;4361381;28;659377;-65
2022/10/16 01:01:54;;;;;;;32.10;18.50;;;11.70;99.90;;;;;;4338394;28;661315;-65
2022/10/16 01:04:42;;;;;;;27.23;14.37;;;11.70;99.90;;;;;;4342892;28;659927;-65
2022/10/16 01:07:35;;;;;;;25.47;14.70;;;11.60;99.90;;;;;;4361524;28;660046;-65
2022/10/16 01:10:28;;;;;;;27.43;15.23;;;11.50;99.90;;;;;;4315666;28;660260;-65
2022/10/16 01:13:18;;;;;;;27.20;14.37;;;11.50;99.90;;;;;;4324573;28;659884;-66
2022/10/16 01:16:07;;;;;;;32.70;16.17;;;11.50;99.90;;;;;;4344575;28;660146;-66
2022/10/16 01:18:58;;;;;;;33.93;17.23;;;11.60;99.90;;;;;;4361015;28;660206;-65
2022/10/16 01:21:46;;;;;;;28.50;18.13;;;11.60;99.90;;;;;;4321124;28;660499;-67
2022/10/16 01:24:37;;;;;;;25.43;14.13;;;11.70;99.90;;;;;;4378537;28;661015;-65
2022/10/16 01:27:26;;;;;;;31.43;17.30;;;11.60;99.90;;;;;;4359491;28;659725;-65
2022/10/16 01:30:16;;;;;;;29.97;14.93;;;11.60;99.90;;;;;;4355187;28;660734;-65
2022/10/16 01:33:05;;;;;;;31.13;16.20;;;11.50;99.90;;;;;;4355004;28;660615;-65
2022/10/16 01:35:54;;;;;;;28.47;15.97;;;11.50;99.90;;;;;;4352603;28;662055;-65
2022/10/16 01:38:41;;;;;;;29.75;16.55;;;11.60;99.90;;;;;;4355297;28;659427;-65
2022/10/16 01:41:31;;;;;;;27.43;15.00;;;11.60;99.90;;;;;;4377509;28;661129;-65
2022/10/16 01:44:20;;;;;;;28.07;15.33;;;11.60;99.90;;;;;;4355314;28;661086;-65
2022/10/16 01:47:08;;;;;;;28.83;16.00;;;11.50;99.90;;;;;;4358851;28;661231;-65
2022/10/16 01:49:55;;;;;;;26.73;15.57;;;11.50;99.90;;;;;;4368087;28;659859;-66
2022/10/16 01:52:44;;;;;;;25.80;15.80;;;11.50;99.90;;;;;;4381663;28;660386;-65
2022/10/16 01:55:33;;;;;;;29.43;15.67;;;11.50;99.90;;;;;;4357534;28;660297;-65
2022/10/16 01:58:21;;;;;;;31.37;15.63;;;11.40;99.90;;;;;;4358553;28;659692;-65
2022/10/16 02:01:09;;;;;;;30.60;15.77;;;11.40;99.90;;;;;;4377230;28;659938;-65
2022/10/16 02:03:57;;;;;;;29.13;16.23;;;11.40;99.90;;;;;;4358741;28;660124;-65
2022/10/16 02:06:45;;;;;;;28.00;15.70;;;11.30;1.00;;;;;;4372267;28;659742;-66
2022/10/16 02:09:33;;;;;;;25.10;15.10;;;11.30;99.90;;;;;;4382472;28;659356;-65
2022/10/16 02:12:24;;;;;;;27.83;15.33;;;11.20;99.90;;;;;;4357849;28;659510;-65
2022/10/16 02:15:11;;;;;;;27.83;15.10;;;11.10;99.90;;;;;;4355248;28;659557;-65
2022/10/16 02:18:00;;;;;;;28.80;15.50;;;11.00;99.90;;;;;;4377072;28;661332;-65
2022/10/16 02:20:53;;;;;;;30.60;15.67;;;11.00;99.90;;;;;;4358375;28;659610;-65
2022/10/16 02:23:44;;;;;;;28.17;15.73;;;11.00;99.90;;;;;;4328166;28;659708;-65
2022/10/16 02:26:36;;;;;;;28.77;14.97;;;11.00;99.90;;;;;;4339258;28;659639;-65
2022/10/16 02:29:25;;;;;;;25.87;15.20;;;10.90;99.90;;;;;;4337326;28;660360;-65
2022/10/16 02:32:12;;;;;;;26.80;15.57;;;10.80;99.90;;;;;;4337398;28;660699;-65
2022/10/16 02:35:01;;;;;;;25.40;14.50;;;10.70;99.90;;;;;;4353999;28;659633;-65
2022/10/16 02:37:48;;;;;;;28.87;15.20;;;10.60;99.90;;;;;;4337275;28;660610;-65
2022/10/16 02:40:35;;;;;;;27.17;14.33;;;10.60;99.90;;;;;;4341472;28;659531;-66
2022/10/16 02:43:22;;;;;;;27.23;14.33;;;10.60;99.90;;;;;;4359208;28;660847;-65
2022/10/16 02:46:09;;;;;;;28.33;15.57;;;10.50;99.90;;;;;;4360438;28;660415;-65
2022/10/16 02:48:57;;;;;;;30.33;15.73;;;10.40;99.90;;;;;;4344786;28;660278;-65
2022/10/16 02:51:45;;;;;;;26.63;15.60;;;10.30;99.90;;;;;;4363274;28;660332;-65
2022/10/16 02:54:32;;;;;;;27.42;14.57;;;10.20;99.90;;;;;;4344698;28;659393;-65
2022/10/16 02:57:19;;;;;;;26.37;15.47;;;10.20;99.90;;;;;;4367482;28;659339;-65
2022/10/16 03:00:08;;;;;;;27.93;15.57;;;10.10;99.90;;;;;;4344636;28;660337;-65
2022/10/16 03:02:55;;;;;;;28.90;15.27;;;10.10;99.90;;;;;;4354653;28;659630;-66
2022/10/16 03:05:45;;;;;;;32.90;16.43;;;10.10;99.90;;;;;;4363153;28;660808;-65
2022/10/16 03:08:34;;;;;;;34.50;17.43;;;9.90;99.90;;;;;;4344833;28;659855;-65
2022/10/16 03:11:21;;;;;;;32.70;16.90;;;9.90;99.90;;;;;;4344288;28;658905;-65
2022/10/16 03:14:08;;;;;;;27.63;16.37;;;9.80;99.90;;;;;;4366318;28;659521;-65
2022/10/16 03:16:55;;;;;;;26.23;15.97;;;9.80;99.90;;;;;;4345423;28;658567;-65
2022/10/16 03:19:42;;;;;;;28.43;15.27;;;9.90;99.90;;;;;;4368271;28;660501;-65
2022/10/16 03:22:29;;;;;;;30.53;15.93;;;9.80;99.90;;;;;;4364098;28;658146;-65
2022/10/16 03:25:18;;;;;;;26.07;15.13;;;9.80;99.90;;;;;;4345246;28;658698;-65
2022/10/16 03:28:05;;;;;;;21.47;14.70;;;9.80;99.90;;;;;;4345708;28;658906;-66
2022/10/16 03:30:52;;;;;;;25.53;14.63;;;9.80;99.90;;;;;;4368315;28;659247;-65
2022/10/16 03:33:39;;;;;;;28.90;15.43;;;9.80;99.90;;;;;;4358057;28;658187;-65
2022/10/16 03:36:27;;;;;;;27.87;14.77;;;9.90;99.90;;;;;;4336470;28;658511;-65
2022/10/16 03:39:14;;;;;;;25.00;14.50;;;9.70;99.90;;;;;;4346565;28;658706;-65
2022/10/16 03:42:02;;;;;;;30.97;15.57;;;9.70;99.90;;;;;;4328128;28;658808;-65
2022/10/16 03:44:49;;;;;;;28.80;14.93;;;9.70;99.90;;;;;;4346423;28;658316;-65
2022/10/16 03:47:37;;;;;;;26.50;14.43;;;9.60;99.90;;;;;;4324390;28;659324;-65
2022/10/16 03:50:24;;;;;;;25.50;14.67;;;9.60;99.90;;;;;;4346687;28;658439;-64
2022/10/16 03:53:11;;;;;;;28.53;14.73;;;9.60;99.90;;;;;;4327617;28;658529;-65
2022/10/16 03:55:58;;;;;;;29.07;14.53;;;9.60;99.90;;;;;;4346639;28;659551;-65
2022/10/16 03:58:47;;;;;;;19.77;12.88;;;9.60;99.90;;;;;;4327033;28;658896;-66
2022/10/16 04:01:34;;;;;;;28.13;13.63;;;9.50;99.90;;;;;;4346385;28;659283;-65
2022/10/16 04:04:21;;;;;;;24.73;13.03;;;9.50;99.90;;;;;;4326136;28;658698;-65
2022/10/16 04:07:08;;;;;;;27.27;12.80;;;9.50;99.90;;;;;;4346595;28;658809;-65
2022/10/16 04:09:56;;;;;;;22.83;13.30;;;9.50;99.90;;;;;;4327557;28;658914;-65
2022/10/16 04:12:44;;;;;;;26.67;13.13;;;9.40;99.90;;;;;;4346671;28;659243;-64
2022/10/16 04:15:32;;;;;;;25.50;14.10;;;9.40;99.90;;;;;;4327617;28;658539;-65
2022/10/16 04:18:19;;;;;;;21.33;13.17;;;9.30;99.90;;;;;;4346250;28;659926;-64
2022/10/16 04:21:07;;;;;;;23.60;13.60;;;9.30;99.90;;;;;;4327555;28;658664;-65
2022/10/16 04:23:54;;;;;;;22.70;13.10;;;9.30;99.90;;;;;;4346221;28;658778;-65
2022/10/16 04:26:41;;;;;;;25.53;13.03;;;9.30;99.90;;;;;;4327491;28;658771;-65
2022/10/16 04:29:28;;;;;;;20.27;12.63;;;9.20;99.90;;;;;;4345972;28;660373;-65
2022/10/16 04:32:17;;;;;;;28.73;13.63;;;9.20;99.90;;;;;;4327685;28;658383;-66
2022/10/16 04:35:05;;;;;;;18.10;12.13;;;9.10;99.90;;;;;;4335838;28;658718;-65
2022/10/16 04:37:52;;;;;;;24.07;12.87;;;9.10;99.90;;;;;;4340177;28;659933;-65
2022/10/16 04:40:39;;;;;;;24.00;12.60;;;9.10;99.90;;;;;;4362032;28;659408;-64
2022/10/16 04:43:26;;;;;;;24.83;12.90;;;9.00;99.90;;;;;;4344404;28;659335;-65
2022/10/16 04:46:13;;;;;;;20.90;11.65;;;9.00;99.90;;;;;;4362870;28;659563;-64
2022/10/16 04:49:02;;;;;;;24.40;13.30;;;9.00;99.90;;;;;;4343839;28;658504;-65
2022/10/16 04:51:49;;;;;;;21.90;12.07;;;9.00;99.90;;;;;;4362263;28;659324;-64
2022/10/16 04:54:36;;;;;;;23.70;12.87;;;9.00;99.90;;;;;;4344099;28;658891;-65
2022/10/16 04:57:23;;;;;;;24.33;12.50;;;9.10;99.90;;;;;;4362154;28;659827;-64
2022/10/16 05:00:11;;;;;;;35.33;17.93;;;9.00;99.90;;;;;;4343962;28;658698;-66
2022/10/16 05:03:00;;;;;;;64.40;30.50;;;9.00;99.90;;;;;;4362537;28;659074;-65
2022/10/16 05:05:49;;;;;;;25.77;14.38;;;9.00;99.90;;;;;;4344006;28;658829;-64
2022/10/16 05:08:36;;;;;;;28.67;15.30;;;9.00;99.90;;;;;;4343737;28;659921;-65
2022/10/16 05:11:23;;;;;;;27.13;14.00;;;9.00;99.90;;;;;;4362189;28;660320;-65
2022/10/16 05:14:10;;;;;;;32.57;16.93;;;9.10;99.90;;;;;;4342708;28;659101;-65
2022/10/16 05:16:58;;;;;;;32.77;18.07;;;9.00;99.90;;;;;;4362430;28;659795;-65
2022/10/16 05:19:45;;;;;;;35.27;18.57;;;9.10;99.90;;;;;;4355734;28;658716;-66
2022/10/16 05:22:34;;;;;;;31.67;16.93;;;9.10;99.90;;;;;;4366354;28;659223;-65
2022/10/16 05:25:21;;;;;;;32.97;15.53;;;9.00;99.90;;;;;;4342924;28;658489;-65
2022/10/16 05:28:08;;;;;;;29.47;14.57;;;9.10;99.90;;;;;;4362311;28;658638;-65
2022/10/16 05:30:55;;;;;;;25.10;14.10;;;9.10;99.90;;;;;;4343447;28;658634;-66
2022/10/16 05:33:43;;;;;;;28.60;14.03;;;9.20;99.90;;;;;;4353289;28;659965;-65
2022/10/16 05:36:30;;;;;;;28.83;14.97;;;9.30;99.90;;;;;;4353846;28;658848;-65
2022/10/16 05:39:19;;;;;;;30.33;15.00;;;9.40;99.90;;;;;;4362019;28;660276;-65
2022/10/16 05:42:06;;;;;;;27.27;14.23;;;9.50;99.90;;;;;;4340887;28;658945;-65
2022/10/16 05:44:54;;;;;;;24.47;12.93;;;9.50;99.90;;;;;;4361974;28;658945;-64
2022/10/16 05:47:41;;;;;;;29.20;13.60;;;9.60;99.90;;;;;;4343355;28;659642;-65
2022/10/16 05:50:28;;;;;;;22.67;12.30;;;9.70;99.90;;;;;;4361454;28;660262;-65
2022/10/16 05:53:15;;;;;;;22.47;11.83;;;9.80;99.90;;;;;;4342883;28;658703;-65
2022/10/16 05:56:04;;;;;;;24.60;12.30;;;9.90;99.90;;;;;;4360940;28;660283;-65
2022/10/16 05:58:51;;;;;;;22.57;13.80;;;10.00;99.90;;;;;;4343247;28;658640;-65
2022/10/16 06:01:39;;;;;;;26.23;13.37;;;10.10;99.90;;;;;;4360838;28;660198;-65
2022/10/16 06:04:26;;;;;;;27.47;14.00;;;10.20;99.90;;;;;;4340156;28;660287;-65
2022/10/16 06:07:13;;;;;;;27.07;13.70;;;10.30;99.90;;;;;;4362198;28;660396;-65
2022/10/16 06:10:00;;;;;;;23.07;12.90;;;10.40;99.90;;;;;;4341702;28;659884;-66
2022/10/16 06:12:49;;;;;;;22.83;12.87;;;10.50;99.90;;;;;;4364544;28;659819;-65
2022/10/16 06:15:36;;;;;;;22.57;12.80;;;10.50;99.90;;;;;;4340934;28;659530;-65
2022/10/16 06:18:23;;;;;;;21.40;13.20;;;10.70;99.90;;;;;;4363013;28;659855;-65
2022/10/16 06:21:11;;;;;;;20.83;12.27;;;10.80;99.90;;;;;;4341181;28;659478;-66
2022/10/16 06:23:58;;;;;;;26.17;13.90;;;10.80;99.90;;;;;;4370718;28;659510;-64
2022/10/16 06:26:45;;;;;;;22.77;14.03;;;10.90;99.90;;;;;;4358575;28;659946;-65
2022/10/16 06:29:34;;;;;;;26.10;14.47;;;11.10;99.90;;;;;;4381391;28;660023;-65
2022/10/16 06:32:21;;;;;;;23.13;13.83;;;11.30;99.90;;;;;;4358451;28;659811;-65
2022/10/16 06:35:09;;;;;;;23.00;13.40;;;11.40;99.90;;;;;;4365915;28;661597;-65
2022/10/16 06:37:56;;;;;;;23.20;13.30;;;11.60;99.90;;;;;;4358197;28;659693;-65
2022/10/16 06:40:43;;;;;;;22.60;12.73;;;11.80;99.90;;;;;;4380906;28;659544;-65
2022/10/16 06:43:31;;;;;;;27.03;12.93;;;12.00;99.90;;;;;;4358098;28;659675;-65
2022/10/16 06:46:21;;;;;;;21.40;13.60;;;12.20;99.90;;;;;;4380683;28;660035;-65
2022/10/16 06:49:08;;;;;;;22.43;13.30;;;12.40;99.90;;;;;;4354367;28;660276;-65
2022/10/16 06:51:55;;;;;;;23.50;13.30;;;12.60;99.90;;;;;;4358032;28;660128;-65
2022/10/16 06:54:43;;;;;;;24.87;12.97;;;12.70;99.90;;;;;;4375732;28;661082;-65
2022/10/16 06:57:30;;;;;;;26.23;11.97;;;12.80;99.90;;;;;;4369338;28;659917;-66
2022/10/16 07:00:17;;;;;;;23.37;12.57;;;12.80;99.90;;;;;;4381027;28;660598;-65
2022/10/16 07:03:06;;;;;;;26.93;13.10;;;13.00;99.90;;;;;;4375868;28;659299;-66
2022/10/16 07:05:54;;;;;;;24.60;11.57;;;13.00;99.90;;;;;;4376804;28;660396;-65
2022/10/16 07:08:42;;;;;;;19.30;11.70;;;13.30;99.90;;;;;;4356553;28;659692;-65
2022/10/16 07:11:29;;;;;;;22.23;11.70;;;13.60;99.90;;;;;;4376826;28;660266;-65
2022/10/16 07:14:17;;;;;;;19.30;11.37;;;13.80;99.90;;;;;;4357991;28;659749;-65
2022/10/16 07:17:04;;;;;;;24.23;11.30;;;14.10;99.90;;;;;;4376604;28;660550;-65
2022/10/16 07:19:53;;;;;;;18.63;10.63;;;14.40;99.90;;;;;;4357962;28;659475;-65
2022/10/16 07:22:40;;;;;;;19.17;10.53;;;14.70;99.90;;;;;;4361731;28;659584;-67
2022/10/16 07:25:27;;;;;;;20.35;10.77;;;15.00;99.90;;;;;;4363678;28;659866;-65
2022/10/16 07:28:14;;;;;;;21.10;11.43;;;15.30;99.90;;;;;;4359571;28;659609;-65
2022/10/16 07:31:02;;;;;;;19.10;11.80;;;15.60;99.90;;;;;;4340950;28;660127;-65
2022/10/16 07:33:49;;;;;;;27.07;14.10;;;15.80;99.90;;;;;;4350865;28;660024;-65
2022/10/16 07:36:38;;;;;;;23.73;13.10;;;16.10;99.90;;;;;;4343315;28;660942;-65
2022/10/16 07:39:25;;;;;;;23.30;11.98;;;16.40;99.90;;;;;;4344063;28;659925;-66
2022/10/16 07:42:12;;;;;;;17.07;11.20;;;16.50;99.90;;;;;;4362725;28;660606;-65
2022/10/16 07:44:59;;;;;;;18.63;10.70;;;16.80;99.90;;;;;;4362628;28;659235;-65
2022/10/16 07:47:47;;;;;;;16.90;9.50;;;17.10;99.90;;;;;;4339810;28;660378;-65
2022/10/16 07:50:34;;;;;;;14.80;9.10;;;17.20;99.90;;;;;;4363690;28;659082;-66
2022/10/16 07:53:22;;;;;;;14.23;9.10;;;17.60;99.90;;;;;;4344723;28;658610;-65
2022/10/16 07:56:11;;;;;;;16.43;8.90;;;17.80;99.90;;;;;;4363418;28;658296;-66
2022/10/16 07:58:58;;;;;;;14.00;8.17;;;17.90;99.90;;;;;;4363521;28;659534;-65
2022/10/16 08:01:45;;;;;;;14.77;8.97;;;18.20;99.90;;;;;;4344827;28;658874;-66
2022/10/16 08:04:32;;;;;;;14.17;8.03;;;18.30;99.90;;;;;;4363317;28;659130;-65
2022/10/16 08:07:20;;;;;;;13.17;7.33;;;18.40;99.90;;;;;;4362960;28;658619;-67
2022/10/16 08:10:12;;;;;;;13.50;8.10;;;18.70;99.90;;;;;;4367352;28;658664;-65
2022/10/16 08:12:59;;;;;;;18.40;8.17;;;18.70;99.90;;;;;;4340930;28;658786;-65
2022/10/16 08:15:47;;;;;;;14.37;8.33;;;18.50;99.90;;;;;;4344853;28;658679;-65
2022/10/16 08:18:34;;;;;;;12.70;7.63;;;18.50;99.90;;;;;;4367080;28;658579;-66
2022/10/16 08:21:22;;;;;;;15.20;7.78;;;18.50;99.90;;;;;;4344692;28;659125;-65
2022/10/16 08:24:10;;;;;;;15.50;8.43;;;18.60;99.90;;;;;;4372880;28;659488;-66
2022/10/16 08:26:59;;;;;;;14.07;8.90;;;17.80;99.90;;;;;;4384082;28;659244;-65
2022/10/16 08:29:46;;;;;;;13.98;8.43;;;17.70;99.90;;;;;;4357725;28;658857;-65
2022/10/16 08:32:33;;;;;;;13.20;8.03;;;17.60;99.90;;;;;;4380297;28;659875;-65
2022/10/16 08:35:20;;;;;;;15.40;8.32;;;17.80;99.90;;;;;;4350332;28;658899;-66
2022/10/16 08:38:07;;;;;;;17.23;8.57;;;17.90;99.90;;;;;;4362915;28;659484;-65
2022/10/16 08:40:56;;;;;;;14.50;8.60;;;17.90;99.90;;;;;;4360343;28;658664;-67
2022/10/16 08:43:56;;;;;;;14.30;8.97;;;18.10;99.90;;;;;;4362738;28;659439;-65
2022/10/16 08:46:45;;;;;;;11.87;8.10;;;17.80;99.90;;;;;;4324049;28;659307;-65
2022/10/16 08:49:32;;;;;;;15.43;9.70;;;17.80;99.90;;;;;;4344345;28;660499;-66
2022/10/16 08:52:19;;;;;;;14.63;9.37;;;18.10;99.90;;;;;;4362856;28;658861;-65
2022/10/16 08:55:07;;;;;;;17.80;9.43;;;18.40;99.90;;;;;;4344275;28;658828;-65
2022/10/16 08:57:54;;;;;;;13.80;7.50;;;18.60;99.90;;;;;;4362460;28;658842;-65
2022/10/16 09:00:44;;;;;;;17.13;7.90;;;18.60;99.90;;;;;;4343872;28;659295;-65
2022/10/16 09:03:42;;;;;;;14.83;7.30;;;18.30;99.90;;;;;;4344117;28;658918;-65
2022/10/16 09:06:42;;;;;;;15.43;7.40;;;18.20;99.90;;;;;;4339943;28;658845;-65
2022/10/16 09:09:49;;;;;;;11.63;7.00;;;18.50;99.90;;;;;;4339729;28;658513;-65
2022/10/16 09:12:39;;;;;;;14.43;7.33;;;18.70;99.90;;;;;;4317273;28;659810;-66
2022/10/16 09:15:30;;;;;;;16.00;7.60;;;18.40;99.90;;;;;;4343794;28;658751;-65
2022/10/16 09:18:21;;;;;;;13.73;7.60;;;18.80;99.90;;;;;;4339356;28;659771;-65
2022/10/16 09:21:13;;;;;;;11.00;7.67;;;19.20;99.90;;;;;;4339894;28;658946;-65
2022/10/16 09:24:01;;;;;;;11.27;6.80;;;19.70;99.90;;;;;;4319734;28;659493;-66
2022/10/16 09:26:48;;;;;;;12.83;7.43;;;20.10;99.90;;;;;;4366157;28;660152;-65
2022/10/16 09:29:35;;;;;;;15.97;7.43;;;20.10;97.70;;;;;;4343594;28;659026;-67
2022/10/16 09:32:22;;;;;;;11.77;7.07;;;20.10;99.90;;;;;;4365838;28;659210;-65
2022/10/16 09:35:15;;;;;;;9.90;6.43;;;20.40;99.90;;;;;;4351479;28;658746;-65
2022/10/16 09:38:02;;;;;;;13.53;6.87;;;20.80;98.60;;;;;;4334933;28;658425;-65
2022/10/16 09:40:49;;;;;;;10.43;6.77;;;21.30;91.90;;;;;;4378779;28;659221;-65
2022/10/16 09:43:39;;;;;;;14.70;6.73;;;21.30;92.60;;;;;;4360314;28;658767;-66
2022/10/16 09:46:28;;;;;;;10.73;6.77;;;21.20;92.60;;;;;;4360072;28;659209;-65
2022/10/16 09:49:23;;;;;;;10.30;6.90;;;20.60;92.30;;;;;;4360159;28;658892;-67
2022/10/16 09:52:14;;;;;;;15.40;7.13;;;20.40;93.60;;;;;;4347084;28;658369;-67
2022/10/16 09:55:02;;;;;;;10.43;6.43;;;20.60;94.50;;;;;;4356387;28;658607;-65
2022/10/16 09:57:50;;;;;;;10.83;7.00;;;20.70;93.20;;;;;;4378137;28;658895;-65
2022/10/16 10:00:37;;;;;;;18.57;7.27;;;20.60;92.30;;;;;;4359998;28;659502;-65
2022/10/16 10:03:36;;;;;;;10.37;7.23;;;20.50;94.50;;;;;;4377962;28;659369;-65
2022/10/16 10:06:24;;;;;;;11.27;6.63;;;20.70;93.00;;;;;;4355983;28;659100;-65
2022/10/16 10:09:21;;;;;;;15.00;7.73;;;20.60;93.70;;;;;;4359877;28;658380;-66
2022/10/16 10:12:18;;;;;;;11.00;7.17;;;21.00;97.30;;;;;;4355676;28;659245;-66
2022/10/16 10:15:06;;;;;;;12.20;8.50;;;21.20;94.00;;;;;;4339526;28;658640;-66
2022/10/16 10:17:54;;;;;;;13.30;8.00;;;21.30;93.20;;;;;;4382295;28;658828;-66
2022/10/16 10:20:42;;;;;;;14.67;7.60;;;21.30;92.60;;;;;;4359730;28;659296;-66
2022/10/16 10:23:29;;;;;;;13.03;7.40;;;21.40;92.80;;;;;;4371711;28;659584;-66
2022/10/16 10:26:19;;;;;;;11.47;7.30;;;21.20;91.80;;;;;;4342503;28;658924;-66
2022/10/16 10:29:08;;;;;;;10.67;7.03;;;21.10;93.80;;;;;;4343001;28;658606;-66
2022/10/16 10:31:58;;;;;;;18.07;7.07;;;20.90;92.70;;;;;;4347583;28;659226;-66
2022/10/16 10:34:58;;;;;;;15.03;7.63;;;20.90;93.40;;;;;;4332427;28;658523;-66
2022/10/16 10:38:03;;;;;;;10.43;7.13;;;20.90;94.50;;;;;;4303091;28;659508;-66
2022/10/16 10:40:52;;;;;;;11.23;6.73;;;20.90;92.90;;;;;;4303321;28;658414;-66
2022/10/16 10:43:47;;;;;;;16.33;7.03;;;21.10;95.80;;;;;;4344107;28;658212;-65
2022/10/16 10:46:36;;;;;;;13.10;7.70;;;21.10;92.40;;;;;;4321911;28;659198;-66
2022/10/16 10:49:34;;;;;;;14.37;7.50;;;21.30;94.00;;;;;;4321461;28;659603;-66
2022/10/16 10:52:33;;;;;;;9.53;6.97;;;21.40;92.40;;;;;;4325466;28;658718;-66
2022/10/16 10:55:25;;;;;;;12.00;7.20;;;21.40;93.80;;;;;;4304349;28;657593;-66
2022/10/16 10:58:23;;;;;;;19.00;6.67;;;21.70;93.00;;;;;;4325467;28;659058;-66
2022/10/16 11:01:13;;;;;;;12.30;6.67;;;21.80;91.60;;;;;;4299072;28;659093;-66
2022/10/16 11:04:12;;;;;;;14.40;6.63;;;21.40;90.80;;;;;;4326226;28;659076;-66
2022/10/16 11:07:01;;;;;;;18.10;6.90;;;21.10;90.00;;;;;;4339927;28;658673;-67
2022/10/16 11:09:49;;;;;;;13.77;6.60;;;20.20;93.90;;;;;;4351189;28;660603;-65
2022/10/16 11:12:37;;;;;;;12.90;6.70;;;20.10;94.70;;;;;;4328744;28;658460;-66
2022/10/16 11:15:26;;;;;;;11.20;6.47;;;20.10;95.40;;;;;;4347205;28;658286;-65
2022/10/16 11:18:17;;;;;;;10.17;6.50;;;20.00;94.50;;;;;;4324891;28;659517;-65
2022/10/16 11:21:06;;;;;;;12.97;6.50;;;19.80;95.50;;;;;;4323697;28;659038;-65
2022/10/16 11:23:56;;;;;;;10.57;6.17;;;19.90;96.70;;;;;;4333485;28;658749;-65
2022/10/16 11:26:44;;;;;;;11.67;7.10;;;19.90;95.30;;;;;;4341555;28;659843;-65
2022/10/16 11:29:31;;;;;;;13.23;7.37;;;19.80;95.40;;;;;;4345272;28;658434;-66
2022/10/16 11:32:22;;;;;;;12.43;7.33;;;19.80;97.30;;;;;;4364135;28;659265;-65
2022/10/16 11:35:15;;;;;;;16.33;6.90;;;19.80;97.50;;;;;;4330912;28;658224;-65
2022/10/16 11:38:02;;;;;;;10.00;6.57;;;20.10;98.40;;;;;;4339109;28;659870;-65
2022/10/16 11:40:50;;;;;;;9.43;6.40;;;20.10;97.20;;;;;;4380577;28;659306;-66
2022/10/16 11:43:39;;;;;;;11.57;6.57;;;20.10;96.10;;;;;;4363480;28;659067;-65
2022/10/16 11:46:26;;;;;;;12.30;6.67;;;20.20;96.40;;;;;;4362149;28;658600;-65
2022/10/16 11:49:14;;;;;;;13.27;5.67;;;19.80;98.90;;;;;;4380749;28;659516;-65
2022/10/16 11:52:07;;;;;;;12.17;6.87;;;19.80;95.70;;;;;;4362070;28;658813;-65
2022/10/16 11:54:56;;;;;;;11.73;7.03;;;19.80;95.90;;;;;;4357880;28;659051;-65
2022/10/16 11:57:45;;;;;;;9.87;6.30;;;19.80;96.60;;;;;;4357844;28;659885;-65
2022/10/16 12:00:34;;;;;;;13.00;6.47;;;19.60;98.20;;;;;;4359168;28;659060;-66
2022/10/16 12:03:22;;;;;;;9.20;6.13;;;19.70;98.00;;;;;;4360796;28;658907;-66
2022/10/16 12:06:20;;;;;;;10.40;6.10;;;19.50;99.00;;;;;;4377168;28;657760;-66
2022/10/16 12:09:12;;;;;;;9.27;6.37;;;19.70;99.40;;;;;;4334781;28;659417;-65
2022/10/16 12:11:59;;;;;;;12.07;6.27;;;19.90;99.00;;;;;;4362547;28;657737;-65
2022/10/16 12:14:46;;;;;;;12.13;6.57;;;20.10;97.30;;;;;;4361689;28;658364;-65
2022/10/16 12:17:36;;;;;;;11.50;6.53;;;20.40;98.00;;;;;;4380353;28;658689;-65
2022/10/16 12:20:30;;;;;;;15.23;7.10;;;20.70;96.70;;;;;;4356925;28;659388;-65
2022/10/16 12:23:21;;;;;;;13.13;7.00;;;21.10;96.40;;;;;;4334908;28;659637;-65
2022/10/16 12:26:10;;;;;;;10.30;6.70;;;21.10;94.50;;;;;;4353920;28;658654;-65
2022/10/16 12:28:58;;;;;;;12.50;7.50;;;20.60;95.40;;;;;;4361681;28;659425;-65
2022/10/16 12:31:46;;;;;;;11.30;6.20;;;20.60;96.80;;;;;;4368612;28;659183;-67
2022/10/16 12:34:39;;;;;;;10.57;6.53;;;20.70;93.70;;;;;;4369569;28;660076;-65
2022/10/16 12:37:27;;;;;;;13.63;6.67;;;20.60;93.70;;;;;;4360536;28;658459;-66
2022/10/16 12:40:15;;;;;;;10.33;6.63;;;20.40;95.60;;;;;;4379703;28;659196;-65
2022/10/16 12:43:14;;;;;;;7.87;5.47;;;20.30;94.30;;;;;;4357120;28;660443;-65
2022/10/16 12:46:03;;;;;;;12.83;6.23;;;20.50;94.50;;;;;;4335607;28;658438;-65
2022/10/16 12:48:50;;;;;;;13.10;6.20;;;21.50;92.80;;;;;;4361201;28;658769;-66
2022/10/16 12:51:37;;;;;;;10.07;5.80;;;22.80;91.40;;;;;;4383993;28;659167;-65
2022/10/16 12:54:28;;;;;;;8.60;5.77;;;23.00;85.40;;;;;;4379262;28;659186;-65
2022/10/16 12:57:27;;;;;;;9.13;5.40;;;22.00;85.80;;;;;;4339482;28;657585;-65
2022/10/16 13:00:22;;;;;;;11.47;5.30;;;21.10;90.60;;;;;;4355109;28;657821;-66
2022/10/16 13:03:48;;;;;;;7.43;5.20;;;20.70;91.90;;;;;;4356823;28;658846;-65
2022/10/16 13:06:38;;;;;;;9.20;5.33;;;20.10;93.50;;;;;;4346956;28;657761;-66
2022/10/16 13:09:34;;;;;;;7.23;3.87;;;19.90;93.00;;;;;;4362149;28;657817;-67
2022/10/16 13:12:33;;;;;;;8.82;5.40;;;19.50;94.70;;;;;;4335232;28;658210;-65
2022/10/16 13:15:42;;;;;;;9.20;4.70;;;19.60;93.80;;;;;;4351733;28;657602;-67
2022/10/16 13:18:31;;;;;;;9.40;5.50;;;19.50;95.20;;;;;;4357886;28;657634;-65
2022/10/16 13:21:25;;;;;;;8.17;5.40;;;19.40;95.90;;;;;;4357929;28;658660;-65
2022/10/16 13:24:20;;;;;;;11.20;5.97;;;19.50;96.00;;;;;;4346672;28;657751;-65
2022/10/16 13:27:10;;;;;;;8.97;5.23;;;19.60;96.60;;;;;;4316927;28;660043;-65
2022/10/16 13:30:02;;;;;;;10.17;5.33;;;19.50;96.80;;;;;;4340918;28;659093;-65
2022/10/16 13:32:53;;;;;;;10.73;6.10;;;19.50;96.10;;;;;;4339216;28;659487;-65
2022/10/16 13:35:48;;;;;;;12.73;6.23;;;19.40;96.10;;;;;;4314874;28;659292;-67
2022/10/16 13:38:36;;;;;;;8.90;6.43;;;19.40;97.50;;;;;;4304055;28;659028;-66
2022/10/16 13:41:23;;;;;;;8.80;5.50;;;19.50;97.20;;;;;;4345674;28;658294;-65
2022/10/16 13:44:14;;;;;;;12.87;5.77;;;20.60;93.70;;;;;;4327474;28;657600;-67
2022/10/16 13:47:01;;;;;;;9.70;6.30;;;21.40;92.60;;;;;;4326184;28;659271;-66
2022/10/16 13:50:00;;;;;;;13.40;5.97;;;22.00;90.10;;;;;;4346073;28;658443;-65
2022/10/16 13:52:49;;;;;;;10.83;6.50;;;22.20;87.70;;;;;;4326116;28;658720;-65
2022/10/16 13:55:36;;;;;;;13.23;7.27;;;23.30;84.40;;;;;;4326323;28;658773;-65
2022/10/16 13:58:23;;;;;;;13.63;6.87;;;25.00;75.30;;;;;;4344822;28;659903;-65
2022/10/16 14:01:17;;;;;;;10.17;5.70;;;25.90;67.30;;;;;;4326283;28;658501;-65
2022/10/16 14:04:06;;;;;;;12.10;6.27;;;25.00;67.80;;;;;;4322165;28;658770;-66
2022/10/16 14:06:54;;;;;;;10.27;6.60;;;24.70;69.30;;;;;;4321799;28;659948;-65
2022/10/16 14:09:41;;;;;;;11.03;6.23;;;24.10;67.70;;;;;;4322232;28;658862;-65
2022/10/16 14:12:29;;;;;;;11.17;6.17;;;24.50;71.10;;;;;;4344365;28;659816;-65